sensor_id;sensor_type;location;lat;lon;timestamp;P1;durP1;ratioP1;P2;durP2;ratioP2
30505;SDS011;17292;51.600;4.994;2024-03-23T00:56:00;7.18;;;3.63;;
30505;SDS011;17292;51.600;4.994;2024-03-23T00:58:26;5.20;;;3.50;;
30505;SDS011;17292;51.600;4.994;2024-03-23T01:00:52;6.30;;;3.45;;
30505;SDS011;17292;51.600;4.994;2024-03-23T01:03:18;9.32;;;3.88;;
30505;SDS011;17292;51.600;4.994;2024-03-23T01:05:45;7.82;;;3.60;;
30505;SDS011;17292;51.600;4.994;2024-03-23T01:08:11;9.63;;;3.92;;
30505;SDS011;17292;51.600;4.994;2024-03-23T01:10:37;7.10;;;3.40;;
30505;SDS011;17292;51.600;4.994;2024-03-23T01:13:03;6.38;;;3.67;;
30505;SDS011;17292;51.600;4.994;2024-03-23T01:15:29;7.80;;;3.42;;
30505;SDS011;17292;51.600;4.994;2024-03-23T01:17:55;6.90;;;3.53;;
30505;SDS011;17292;51.600;4.994;2024-03-23T01:20:21;6.63;;;3.70;;
30505;SDS011;17292;51.600;4.994;2024-03-23T01:22:48;6.90;;;3.70;;
30505;SDS011;17292;51.600;4.994;2024-03-23T01:25:14;9.93;;;4.15;;
30505;SDS011;17292;51.600;4.994;2024-03-23T01:27:40;11.63;;;3.72;;
30505;SDS011;17292;51.600;4.994;2024-03-23T01:30:06;7.00;;;3.97;;
30505;SDS011;17292;51.600;4.994;2024-03-23T01:32:32;7.10;;;3.42;;
30505;SDS011;17292;51.600;4.994;2024-03-23T01:34:59;5.55;;;3.10;;
30505;SDS011;17292;51.600;4.994;2024-03-23T01:37:25;6.38;;;3.50;;
30505;SDS011;17292;51.600;4.994;2024-03-23T01:39:51;7.13;;;3.80;;
30505;SDS011;17292;51.600;4.994;2024-03-23T01:42:17;8.48;;;3.67;;
30505;SDS011;17292;51.600;4.994;2024-03-23T01:44:43;7.47;;;3.47;;
30505;SDS011;17292;51.600;4.994;2024-03-23T01:47:10;9.55;;;3.72;;
30505;SDS011;17292;51.600;4.994;2024-03-23T01:49:36;6.55;;;3.30;;
30505;SDS011;17292;51.600;4.994;2024-03-23T01:52:02;8.07;;;3.78;;
30505;SDS011;17292;51.600;4.994;2024-03-23T01:54:28;4.85;;;3.40;;
30505;SDS011;17292;51.600;4.994;2024-03-23T01:56:55;7.45;;;3.65;;
30505;SDS011;17292;51.600;4.994;2024-03-23T01:59:21;10.00;;;4.05;;
30505;SDS011;17292;51.600;4.994;2024-03-23T02:01:48;7.30;;;3.42;;
30505;SDS011;17292;51.600;4.994;2024-03-23T02:04:14;6.03;;;3.40;;
30505;SDS011;17292;51.600;4.994;2024-03-23T02:06:40;11.48;;;3.85;;
30505;SDS011;17292;51.600;4.994;2024-03-23T02:09:06;4.90;;;3.10;;
30505;SDS011;17292;51.600;4.994;2024-03-23T02:11:32;8.30;;;3.25;;
30505;SDS011;17292;51.600;4.994;2024-03-23T02:13:58;8.18;;;3.95;;
30505;SDS011;17292;51.600;4.994;2024-03-23T02:16:25;7.28;;;3.38;;
30505;SDS011;17292;51.600;4.994;2024-03-23T02:18:51;5.90;;;3.53;;
30505;SDS011;17292;51.600;4.994;2024-03-23T02:21:17;8.27;;;4.07;;
30505;SDS011;17292;51.600;4.994;2024-03-23T02:23:43;7.28;;;3.70;;
30505;SDS011;17292;51.600;4.994;2024-03-23T02:26:09;7.72;;;3.85;;
30505;SDS011;17292;51.600;4.994;2024-03-23T02:28:35;6.90;;;3.22;;
30505;SDS011;17292;51.600;4.994;2024-03-23T02:31:01;6.53;;;3.35;;
30505;SDS011;17292;51.600;4.994;2024-03-23T02:33:29;8.52;;;3.75;;
30505;SDS011;17292;51.600;4.994;2024-03-23T02:35:57;8.60;;;3.67;;
30505;SDS011;17292;51.600;4.994;2024-03-23T02:38:23;8.38;;;3.70;;
30505;SDS011;17292;51.600;4.994;2024-03-23T02:40:49;7.18;;;3.58;;
30505;SDS011;17292;51.600;4.994;2024-03-23T02:43:15;6.10;;;3.50;;
30505;SDS011;17292;51.600;4.994;2024-03-23T02:45:41;8.68;;;4.20;;
30505;SDS011;17292;51.600;4.994;2024-03-23T02:48:07;9.48;;;3.88;;
30505;SDS011;17292;51.600;4.994;2024-03-23T02:50:34;7.10;;;3.85;;
30505;SDS011;17292;51.600;4.994;2024-03-23T02:53:00;9.27;;;3.55;;
30505;SDS011;17292;51.600;4.994;2024-03-23T02:55:26;6.30;;;3.50;;
30505;SDS011;17292;51.600;4.994;2024-03-23T02:57:52;9.18;;;3.60;;
30505;SDS011;17292;51.600;4.994;2024-03-23T03:00:19;6.50;;;3.50;;
30505;SDS011;17292;51.600;4.994;2024-03-23T03:02:45;5.50;;;3.35;;
30505;SDS011;17292;51.600;4.994;2024-03-23T03:05:11;7.10;;;3.45;;
30505;SDS011;17292;51.600;4.994;2024-03-23T03:07:39;5.75;;;3.33;;
30505;SDS011;17292;51.600;4.994;2024-03-23T03:10:06;7.10;;;3.80;;
30505;SDS011;17292;51.600;4.994;2024-03-23T03:12:35;6.45;;;3.55;;
30505;SDS011;17292;51.600;4.994;2024-03-23T03:15:01;9.05;;;3.50;;
30505;SDS011;17292;51.600;4.994;2024-03-23T03:17:28;6.25;;;3.15;;
30505;SDS011;17292;51.600;4.994;2024-03-23T03:19:54;5.65;;;3.15;;
30505;SDS011;17292;51.600;4.994;2024-03-23T03:22:21;7.07;;;3.50;;
30505;SDS011;17292;51.600;4.994;2024-03-23T03:24:47;8.15;;;3.30;;
30505;SDS011;17292;51.600;4.994;2024-03-23T03:27:13;5.85;;;3.60;;
30505;SDS011;17292;51.600;4.994;2024-03-23T03:29:40;6.82;;;3.63;;
30505;SDS011;17292;51.600;4.994;2024-03-23T03:32:06;6.07;;;3.42;;
30505;SDS011;17292;51.600;4.994;2024-03-23T03:34:32;11.30;;;3.28;;
30505;SDS011;17292;51.600;4.994;2024-03-23T03:36:58;7.78;;;3.58;;
30505;SDS011;17292;51.600;4.994;2024-03-23T03:39:25;5.53;;;3.20;;
30505;SDS011;17292;51.600;4.994;2024-03-23T03:41:51;5.93;;;3.50;;
30505;SDS011;17292;51.600;4.994;2024-03-23T03:44:17;4.35;;;3.03;;
30505;SDS011;17292;51.600;4.994;2024-03-23T03:46:43;4.57;;;3.10;;
30505;SDS011;17292;51.600;4.994;2024-03-23T03:49:10;6.43;;;3.30;;
30505;SDS011;17292;51.600;4.994;2024-03-23T03:51:36;4.80;;;3.28;;
30505;SDS011;17292;51.600;4.994;2024-03-23T03:54:02;8.18;;;3.60;;
30505;SDS011;17292;51.600;4.994;2024-03-23T03:56:28;4.90;;;3.17;;
30505;SDS011;17292;51.600;4.994;2024-03-23T03:58:55;6.47;;;3.20;;
30505;SDS011;17292;51.600;4.994;2024-03-23T04:01:21;7.80;;;3.63;;
30505;SDS011;17292;51.600;4.994;2024-03-23T04:03:47;6.32;;;2.97;;
30505;SDS011;17292;51.600;4.994;2024-03-23T04:06:18;4.63;;;3.58;;
30505;SDS011;17292;51.600;4.994;2024-03-23T04:08:45;5.47;;;3.22;;
30505;SDS011;17292;51.600;4.994;2024-03-23T04:11:11;6.07;;;3.13;;
30505;SDS011;17292;51.600;4.994;2024-03-23T04:13:37;6.18;;;2.88;;
30505;SDS011;17292;51.600;4.994;2024-03-23T04:16:03;3.50;;;2.83;;
30505;SDS011;17292;51.600;4.994;2024-03-23T04:18:29;5.38;;;3.15;;
30505;SDS011;17292;51.600;4.994;2024-03-23T04:20:56;5.63;;;3.58;;
30505;SDS011;17292;51.600;4.994;2024-03-23T04:23:22;5.00;;;3.10;;
30505;SDS011;17292;51.600;4.994;2024-03-23T04:25:48;5.03;;;3.35;;
30505;SDS011;17292;51.600;4.994;2024-03-23T04:28:14;4.75;;;3.17;;
30505;SDS011;17292;51.600;4.994;2024-03-23T04:30:41;6.97;;;3.47;;
30505;SDS011;17292;51.600;4.994;2024-03-23T04:33:07;4.10;;;3.03;;
30505;SDS011;17292;51.600;4.994;2024-03-23T04:35:33;4.47;;;3.10;;
30505;SDS011;17292;51.600;4.994;2024-03-23T04:38:01;8.05;;;3.10;;
30505;SDS011;17292;51.600;4.994;2024-03-23T04:40:27;6.13;;;3.05;;
30505;SDS011;17292;51.600;4.994;2024-03-23T04:42:53;7.45;;;3.88;;
30505;SDS011;17292;51.600;4.994;2024-03-23T04:45:19;4.68;;;3.00;;
30505;SDS011;17292;51.600;4.994;2024-03-23T04:47:45;6.32;;;2.95;;
30505;SDS011;17292;51.600;4.994;2024-03-23T04:50:12;4.82;;;3.15;;
30505;SDS011;17292;51.600;4.994;2024-03-23T04:52:38;6.93;;;3.10;;
30505;SDS011;17292;51.600;4.994;2024-03-23T04:55:04;5.85;;;3.13;;
30505;SDS011;17292;51.600;4.994;2024-03-23T04:57:31;4.85;;;3.10;;
30505;SDS011;17292;51.600;4.994;2024-03-23T04:59:57;8.25;;;3.17;;
30505;SDS011;17292;51.600;4.994;2024-03-23T05:02:23;5.38;;;3.33;;
30505;SDS011;17292;51.600;4.994;2024-03-23T05:04:50;3.88;;;3.13;;
30505;SDS011;17292;51.600;4.994;2024-03-23T05:07:16;3.85;;;3.30;;
30505;SDS011;17292;51.600;4.994;2024-03-23T05:09:43;7.38;;;3.60;;
30505;SDS011;17292;51.600;4.994;2024-03-23T05:12:09;6.20;;;3.10;;
30505;SDS011;17292;51.600;4.994;2024-03-23T05:14:35;7.50;;;3.85;;
30505;SDS011;17292;51.600;4.994;2024-03-23T05:17:01;6.35;;;2.97;;
30505;SDS011;17292;51.600;4.994;2024-03-23T05:19:28;3.97;;;2.90;;
30505;SDS011;17292;51.600;4.994;2024-03-23T05:21:54;5.20;;;2.92;;
30505;SDS011;17292;51.600;4.994;2024-03-23T05:24:20;4.50;;;2.95;;
30505;SDS011;17292;51.600;4.994;2024-03-23T05:26:46;5.35;;;2.90;;
30505;SDS011;17292;51.600;4.994;2024-03-23T05:29:12;3.92;;;3.15;;
30505;SDS011;17292;51.600;4.994;2024-03-23T05:31:38;8.25;;;3.90;;
30505;SDS011;17292;51.600;4.994;2024-03-23T05:34:06;4.85;;;3.00;;
30505;SDS011;17292;51.600;4.994;2024-03-23T05:36:33;7.57;;;3.22;;
30505;SDS011;17292;51.600;4.994;2024-03-23T05:38:59;7.55;;;3.10;;
30505;SDS011;17292;51.600;4.994;2024-03-23T05:41:25;8.30;;;3.65;;
30505;SDS011;17292;51.600;4.994;2024-03-23T05:43:51;6.90;;;3.17;;
30505;SDS011;17292;51.600;4.994;2024-03-23T05:46:17;5.32;;;3.30;;
30505;SDS011;17292;51.600;4.994;2024-03-23T05:48:43;8.27;;;3.35;;
30505;SDS011;17292;51.600;4.994;2024-03-23T05:51:09;7.65;;;3.28;;
30505;SDS011;17292;51.600;4.994;2024-03-23T05:53:37;6.10;;;3.22;;
30505;SDS011;17292;51.600;4.994;2024-03-23T05:56:04;9.45;;;3.55;;
30505;SDS011;17292;51.600;4.994;2024-03-23T05:58:31;6.13;;;3.50;;
30505;SDS011;17292;51.600;4.994;2024-03-23T06:00:57;4.72;;;3.03;;
30505;SDS011;17292;51.600;4.994;2024-03-23T06:03:24;6.82;;;3.00;;
30505;SDS011;17292;51.600;4.994;2024-03-23T06:05:51;6.50;;;3.33;;
30505;SDS011;17292;51.600;4.994;2024-03-23T06:08:18;6.18;;;3.25;;
30505;SDS011;17292;51.600;4.994;2024-03-23T06:10:45;6.13;;;3.75;;
30505;SDS011;17292;51.600;4.994;2024-03-23T06:13:11;5.18;;;3.33;;
30505;SDS011;17292;51.600;4.994;2024-03-23T06:15:37;5.75;;;3.65;;
30505;SDS011;17292;51.600;4.994;2024-03-23T06:18:04;8.07;;;3.65;;
30505;SDS011;17292;51.600;4.994;2024-03-23T06:20:30;5.63;;;3.10;;
30505;SDS011;17292;51.600;4.994;2024-03-23T06:22:57;7.95;;;3.85;;
30505;SDS011;17292;51.600;4.994;2024-03-23T06:25:23;4.00;;;3.13;;
30505;SDS011;17292;51.600;4.994;2024-03-23T06:27:49;6.65;;;3.03;;
30505;SDS011;17292;51.600;4.994;2024-03-23T06:30:15;5.50;;;3.13;;
30505;SDS011;17292;51.600;4.994;2024-03-23T06:32:41;6.63;;;3.47;;
30505;SDS011;17292;51.600;4.994;2024-03-23T06:35:08;5.80;;;3.20;;
30505;SDS011;17292;51.600;4.994;2024-03-23T06:37:35;4.95;;;3.30;;
30505;SDS011;17292;51.600;4.994;2024-03-23T06:40:02;9.43;;;3.58;;
30505;SDS011;17292;51.600;4.994;2024-03-23T06:42:30;6.60;;;3.30;;
30505;SDS011;17292;51.600;4.994;2024-03-23T06:44:56;3.83;;;2.97;;
30505;SDS011;17292;51.600;4.994;2024-03-23T06:47:22;5.82;;;3.05;;
30505;SDS011;17292;51.600;4.994;2024-03-23T06:49:48;5.50;;;3.33;;
30505;SDS011;17292;51.600;4.994;2024-03-23T06:52:14;5.10;;;3.10;;
30505;SDS011;17292;51.600;4.994;2024-03-23T06:54:40;7.70;;;3.28;;
30505;SDS011;17292;51.600;4.994;2024-03-23T06:57:06;6.32;;;3.08;;
30505;SDS011;17292;51.600;4.994;2024-03-23T06:59:32;4.97;;;3.55;;
30505;SDS011;17292;51.600;4.994;2024-03-23T07:01:59;5.78;;;3.50;;
30505;SDS011;17292;51.600;4.994;2024-03-23T07:04:25;2.90;;;2.60;;
30505;SDS011;17292;51.600;4.994;2024-03-23T07:06:51;5.93;;;3.13;;
30505;SDS011;17292;51.600;4.994;2024-03-23T07:09:17;4.05;;;3.25;;
30505;SDS011;17292;51.600;4.994;2024-03-23T07:11:44;6.60;;;2.80;;
30505;SDS011;17292;51.600;4.994;2024-03-23T07:14:11;5.55;;;3.10;;
30505;SDS011;17292;51.600;4.994;2024-03-23T07:16:37;4.38;;;3.20;;
30505;SDS011;17292;51.600;4.994;2024-03-23T07:19:03;5.53;;;3.30;;
30505;SDS011;17292;51.600;4.994;2024-03-23T07:21:29;3.97;;;2.90;;
30505;SDS011;17292;51.600;4.994;2024-03-23T07:23:55;5.32;;;3.30;;
30505;SDS011;17292;51.600;4.994;2024-03-23T07:26:21;4.85;;;3.05;;
30505;SDS011;17292;51.600;4.994;2024-03-23T07:28:47;5.55;;;3.60;;
30505;SDS011;17292;51.600;4.994;2024-03-23T07:31:14;2.67;;;2.47;;
30505;SDS011;17292;51.600;4.994;2024-03-23T07:33:45;5.05;;;3.17;;
30505;SDS011;17292;51.600;4.994;2024-03-23T07:36:12;5.20;;;2.83;;
30505;SDS011;17292;51.600;4.994;2024-03-23T07:38:40;4.03;;;3.10;;
30505;SDS011;17292;51.600;4.994;2024-03-23T07:41:07;4.90;;;2.90;;
30505;SDS011;17292;51.600;4.994;2024-03-23T07:43:34;4.43;;;2.80;;
30505;SDS011;17292;51.600;4.994;2024-03-23T07:46:00;6.60;;;3.00;;
30505;SDS011;17292;51.600;4.994;2024-03-23T07:48:28;4.38;;;2.72;;
30505;SDS011;17292;51.600;4.994;2024-03-23T07:51:04;4.18;;;3.00;;
30505;SDS011;17292;51.600;4.994;2024-03-23T07:53:31;4.10;;;3.33;;
30505;SDS011;17292;51.600;4.994;2024-03-23T07:56:07;4.32;;;2.97;;
30505;SDS011;17292;51.600;4.994;2024-03-23T07:58:35;3.97;;;3.00;;
30505;SDS011;17292;51.600;4.994;2024-03-23T08:01:08;6.55;;;2.83;;
30505;SDS011;17292;51.600;4.994;2024-03-23T08:03:35;3.85;;;2.90;;
30505;SDS011;17292;51.600;4.994;2024-03-23T08:08:33;6.20;;;3.15;;
30505;SDS011;17292;51.600;4.994;2024-03-23T08:11:00;4.32;;;3.00;;
30505;SDS011;17292;51.600;4.994;2024-03-23T08:13:26;5.50;;;2.85;;
30505;SDS011;17292;51.600;4.994;2024-03-23T08:15:55;5.90;;;3.40;;
30505;SDS011;17292;51.600;4.994;2024-03-23T08:18:22;5.60;;;3.17;;
30505;SDS011;17292;51.600;4.994;2024-03-23T08:20:55;5.65;;;2.72;;
30505;SDS011;17292;51.600;4.994;2024-03-23T08:23:21;3.88;;;2.88;;
30505;SDS011;17292;51.600;4.994;2024-03-23T08:25:47;5.75;;;2.85;;
30505;SDS011;17292;51.600;4.994;2024-03-23T08:28:13;3.63;;;3.05;;
30505;SDS011;17292;51.600;4.994;2024-03-23T08:30:40;5.63;;;2.95;;
30505;SDS011;17292;51.600;4.994;2024-03-23T08:33:06;3.97;;;2.90;;
30505;SDS011;17292;51.600;4.994;2024-03-23T08:35:32;4.97;;;2.75;;
30505;SDS011;17292;51.600;4.994;2024-03-23T08:37:59;4.35;;;2.80;;
30505;SDS011;17292;51.600;4.994;2024-03-23T08:40:26;4.45;;;2.75;;
30505;SDS011;17292;51.600;4.994;2024-03-23T08:42:52;4.47;;;2.78;;
30505;SDS011;17292;51.600;4.994;2024-03-23T08:45:18;5.47;;;3.10;;
30505;SDS011;17292;51.600;4.994;2024-03-23T08:47:44;5.68;;;3.13;;
30505;SDS011;17292;51.600;4.994;2024-03-23T08:50:10;4.70;;;3.35;;
30505;SDS011;17292;51.600;4.994;2024-03-23T08:52:36;4.40;;;2.80;;
30505;SDS011;17292;51.600;4.994;2024-03-23T08:55:02;3.38;;;2.53;;
30505;SDS011;17292;51.600;4.994;2024-03-23T08:57:29;6.00;;;2.75;;
30505;SDS011;17292;51.600;4.994;2024-03-23T08:59:55;6.45;;;3.20;;
30505;SDS011;17292;51.600;4.994;2024-03-23T09:02:21;5.22;;;3.20;;
30505;SDS011;17292;51.600;4.994;2024-03-23T09:04:47;4.90;;;2.63;;
30505;SDS011;17292;51.600;4.994;2024-03-23T09:07:13;5.32;;;2.70;;
30505;SDS011;17292;51.600;4.994;2024-03-23T09:09:40;5.53;;;3.10;;
30505;SDS011;17292;51.600;4.994;2024-03-23T09:12:06;5.00;;;2.97;;
30505;SDS011;17292;51.600;4.994;2024-03-23T09:14:33;5.28;;;2.85;;
30505;SDS011;17292;51.600;4.994;2024-03-23T09:16:59;5.32;;;3.20;;
30505;SDS011;17292;51.600;4.994;2024-03-23T09:19:28;4.32;;;2.92;;
30505;SDS011;17292;51.600;4.994;2024-03-23T09:21:55;4.53;;;2.67;;
30505;SDS011;17292;51.600;4.994;2024-03-23T09:24:21;4.10;;;2.60;;
30505;SDS011;17292;51.600;4.994;2024-03-23T09:26:47;3.00;;;2.67;;
30505;SDS011;17292;51.600;4.994;2024-03-23T09:29:13;5.78;;;2.80;;
30505;SDS011;17292;51.600;4.994;2024-03-23T09:31:40;3.25;;;2.65;;
30505;SDS011;17292;51.600;4.994;2024-03-23T09:34:06;4.07;;;3.00;;
30505;SDS011;17292;51.600;4.994;2024-03-23T09:36:32;4.65;;;2.60;;
30505;SDS011;17292;51.600;4.994;2024-03-23T09:38:58;4.30;;;2.78;;
30505;SDS011;17292;51.600;4.994;2024-03-23T09:41:24;4.25;;;2.60;;
30505;SDS011;17292;51.600;4.994;2024-03-23T09:43:54;4.07;;;2.72;;
30505;SDS011;17292;51.600;4.994;2024-03-23T09:46:20;3.88;;;3.08;;
30505;SDS011;17292;51.600;4.994;2024-03-23T09:48:46;4.55;;;2.55;;
30505;SDS011;17292;51.600;4.994;2024-03-23T09:51:13;3.92;;;3.08;;
30505;SDS011;17292;51.600;4.994;2024-03-23T09:53:39;2.97;;;2.47;;
30505;SDS011;17292;51.600;4.994;2024-03-23T09:56:07;4.05;;;2.60;;
30505;SDS011;17292;51.600;4.994;2024-03-23T09:58:33;4.75;;;2.58;;
30505;SDS011;17292;51.600;4.994;2024-03-23T10:00:59;2.88;;;2.50;;
30505;SDS011;17292;51.600;4.994;2024-03-23T10:03:26;3.22;;;2.80;;
30505;SDS011;17292;51.600;4.994;2024-03-23T10:06:01;3.40;;;2.58;;
30505;SDS011;17292;51.600;4.994;2024-03-23T10:08:28;3.00;;;2.38;;
30505;SDS011;17292;51.600;4.994;2024-03-23T10:10:55;2.63;;;2.25;;
30505;SDS011;17292;51.600;4.994;2024-03-23T10:13:25;3.83;;;2.60;;
30505;SDS011;17292;51.600;4.994;2024-03-23T10:15:58;2.92;;;2.25;;
30505;SDS011;17292;51.600;4.994;2024-03-23T10:18:25;3.17;;;2.85;;
30505;SDS011;17292;51.600;4.994;2024-03-23T10:23:35;2.97;;;2.60;;
30505;SDS011;17292;51.600;4.994;2024-03-23T10:31:18;5.70;;;2.75;;
30505;SDS011;17292;51.600;4.994;2024-03-23T10:33:47;3.80;;;2.72;;
30505;SDS011;17292;51.600;4.994;2024-03-23T10:36:14;2.53;;;2.33;;
30505;SDS011;17292;51.600;4.994;2024-03-23T10:38:40;3.17;;;2.47;;
30505;SDS011;17292;51.600;4.994;2024-03-23T10:41:08;4.78;;;2.75;;
30505;SDS011;17292;51.600;4.994;2024-03-23T10:43:38;4.00;;;2.70;;
30505;SDS011;17292;51.600;4.994;2024-03-23T10:46:04;4.18;;;2.60;;
30505;SDS011;17292;51.600;4.994;2024-03-23T10:48:31;3.65;;;2.88;;
30505;SDS011;17292;51.600;4.994;2024-03-23T10:50:58;4.68;;;2.60;;
30505;SDS011;17292;51.600;4.994;2024-03-23T10:53:27;2.47;;;2.28;;
30505;SDS011;17292;51.600;4.994;2024-03-23T10:55:54;3.58;;;2.55;;
30505;SDS011;17292;51.600;4.994;2024-03-23T10:58:25;5.55;;;2.80;;
30505;SDS011;17292;51.600;4.994;2024-03-23T11:00:52;4.35;;;2.88;;
30505;SDS011;17292;51.600;4.994;2024-03-23T11:03:31;3.63;;;2.63;;
30505;SDS011;17292;51.600;4.994;2024-03-23T11:05:58;3.70;;;2.53;;
30505;SDS011;17292;51.600;4.994;2024-03-23T11:08:31;4.15;;;3.00;;
30505;SDS011;17292;51.600;4.994;2024-03-23T11:13:39;4.10;;;2.40;;
30505;SDS011;17292;51.600;4.994;2024-03-23T11:18:41;2.85;;;2.42;;
30505;SDS011;17292;51.600;4.994;2024-03-23T11:21:07;2.85;;;2.22;;
30505;SDS011;17292;51.600;4.994;2024-03-23T11:23:34;5.32;;;2.72;;
30505;SDS011;17292;51.600;4.994;2024-03-23T11:26:00;3.58;;;2.40;;
30505;SDS011;17292;51.600;4.994;2024-03-23T11:28:26;5.00;;;3.28;;
30505;SDS011;17292;51.600;4.994;2024-03-23T11:30:52;2.95;;;2.58;;
30505;SDS011;17292;51.600;4.994;2024-03-23T11:33:18;3.25;;;2.55;;
30505;SDS011;17292;51.600;4.994;2024-03-23T11:35:45;4.55;;;2.58;;
30505;SDS011;17292;51.600;4.994;2024-03-23T11:38:14;3.90;;;2.40;;
30505;SDS011;17292;51.600;4.994;2024-03-23T11:40:46;5.97;;;2.22;;
30505;SDS011;17292;51.600;4.994;2024-03-23T11:43:17;4.18;;;2.92;;
30505;SDS011;17292;51.600;4.994;2024-03-23T11:48:16;5.25;;;2.47;;
30505;SDS011;17292;51.600;4.994;2024-03-23T11:50:43;4.05;;;2.45;;
30505;SDS011;17292;51.600;4.994;2024-03-23T11:53:12;3.42;;;2.45;;
30505;SDS011;17292;51.600;4.994;2024-03-23T11:55:39;3.67;;;2.78;;
30505;SDS011;17292;51.600;4.994;2024-03-23T11:58:06;3.85;;;2.60;;
30505;SDS011;17292;51.600;4.994;2024-03-23T12:00:33;3.08;;;2.78;;
30505;SDS011;17292;51.600;4.994;2024-03-23T12:03:02;2.50;;;2.25;;
30505;SDS011;17292;51.600;4.994;2024-03-23T12:05:28;4.10;;;2.78;;
30505;SDS011;17292;51.600;4.994;2024-03-23T12:07:55;3.38;;;2.63;;
30505;SDS011;17292;51.600;4.994;2024-03-23T12:10:21;3.50;;;2.58;;
30505;SDS011;17292;51.600;4.994;2024-03-23T12:13:00;4.07;;;2.40;;
30505;SDS011;17292;51.600;4.994;2024-03-23T12:15:26;3.83;;;2.55;;
30505;SDS011;17292;51.600;4.994;2024-03-23T12:18:05;5.10;;;2.65;;
30505;SDS011;17292;51.600;4.994;2024-03-23T12:20:32;3.75;;;2.65;;
30505;SDS011;17292;51.600;4.994;2024-03-23T12:23:11;2.75;;;2.17;;
30505;SDS011;17292;51.600;4.994;2024-03-23T12:25:38;3.45;;;2.70;;
30505;SDS011;17292;51.600;4.994;2024-03-23T12:28:04;2.97;;;2.40;;
30505;SDS011;17292;51.600;4.994;2024-03-23T12:30:32;4.32;;;2.28;;
30505;SDS011;17292;51.600;4.994;2024-03-23T12:32:58;2.65;;;2.45;;
30505;SDS011;17292;51.600;4.994;2024-03-23T12:35:25;2.78;;;2.40;;
30505;SDS011;17292;51.600;4.994;2024-03-23T12:37:51;2.80;;;2.47;;
30505;SDS011;17292;51.600;4.994;2024-03-23T12:40:17;5.43;;;2.38;;
30505;SDS011;17292;51.600;4.994;2024-03-23T12:42:43;4.00;;;2.85;;
30505;SDS011;17292;51.600;4.994;2024-03-23T12:45:09;4.30;;;2.55;;
30505;SDS011;17292;51.600;4.994;2024-03-23T12:47:35;3.55;;;2.55;;
30505;SDS011;17292;51.600;4.994;2024-03-23T12:50:01;3.63;;;2.42;;
30505;SDS011;17292;51.600;4.994;2024-03-23T12:52:28;4.35;;;2.53;;
30505;SDS011;17292;51.600;4.994;2024-03-23T12:54:57;14.55;;;3.15;;
30505;SDS011;17292;51.600;4.994;2024-03-23T12:57:24;4.07;;;2.65;;
30505;SDS011;17292;51.600;4.994;2024-03-23T12:59:51;2.90;;;2.50;;
30505;SDS011;17292;51.600;4.994;2024-03-23T13:02:18;4.22;;;2.85;;
30505;SDS011;17292;51.600;4.994;2024-03-23T13:04:45;3.17;;;2.53;;
30505;SDS011;17292;51.600;4.994;2024-03-23T13:07:11;2.97;;;2.63;;
30505;SDS011;17292;51.600;4.994;2024-03-23T13:09:38;4.18;;;3.05;;
30505;SDS011;17292;51.600;4.994;2024-03-23T13:12:04;3.63;;;2.75;;
30505;SDS011;17292;51.600;4.994;2024-03-23T13:14:30;6.45;;;3.28;;
30505;SDS011;17292;51.600;4.994;2024-03-23T13:16:56;2.80;;;2.47;;
30505;SDS011;17292;51.600;4.994;2024-03-23T13:19:22;3.55;;;2.72;;
30505;SDS011;17292;51.600;4.994;2024-03-23T13:21:53;3.53;;;2.40;;
30505;SDS011;17292;51.600;4.994;2024-03-23T13:24:23;2.95;;;2.65;;
30505;SDS011;17292;51.600;4.994;2024-03-23T13:26:50;3.70;;;2.40;;
30505;SDS011;17292;51.600;4.994;2024-03-23T13:29:16;4.85;;;2.70;;
30505;SDS011;17292;51.600;4.994;2024-03-23T13:31:43;3.67;;;2.72;;
30505;SDS011;17292;51.600;4.994;2024-03-23T13:34:09;3.88;;;2.90;;
30505;SDS011;17292;51.600;4.994;2024-03-23T13:36:35;4.85;;;2.70;;
30505;SDS011;17292;51.600;4.994;2024-03-23T13:39:04;4.32;;;2.70;;
30505;SDS011;17292;51.600;4.994;2024-03-23T13:41:36;3.58;;;2.70;;
30505;SDS011;17292;51.600;4.994;2024-03-23T13:44:02;4.40;;;2.85;;
30505;SDS011;17292;51.600;4.994;2024-03-23T13:46:29;4.78;;;2.83;;
30505;SDS011;17292;51.600;4.994;2024-03-23T13:48:55;3.53;;;2.97;;
30505;SDS011;17292;51.600;4.994;2024-03-23T13:51:24;4.78;;;2.75;;
30505;SDS011;17292;51.600;4.994;2024-03-23T13:53:52;3.08;;;2.70;;
30505;SDS011;17292;51.600;4.994;2024-03-23T13:56:19;4.93;;;2.80;;
30505;SDS011;17292;51.600;4.994;2024-03-23T13:58:45;4.28;;;2.80;;
30505;SDS011;17292;51.600;4.994;2024-03-23T14:01:12;4.75;;;2.85;;
30505;SDS011;17292;51.600;4.994;2024-03-23T14:03:39;3.92;;;2.72;;
30505;SDS011;17292;51.600;4.994;2024-03-23T14:06:05;4.20;;;2.78;;
30505;SDS011;17292;51.600;4.994;2024-03-23T14:08:33;4.20;;;3.00;;
30505;SDS011;17292;51.600;4.994;2024-03-23T14:11:01;3.80;;;2.50;;
30505;SDS011;17292;51.600;4.994;2024-03-23T14:13:28;6.38;;;3.00;;
30505;SDS011;17292;51.600;4.994;2024-03-23T14:15:54;4.70;;;2.97;;
30505;SDS011;17292;51.600;4.994;2024-03-23T14:18:20;6.40;;;2.78;;
30505;SDS011;17292;51.600;4.994;2024-03-23T14:20:49;5.68;;;3.13;;
30505;SDS011;17292;51.600;4.994;2024-03-23T14:23:16;4.78;;;3.00;;
30505;SDS011;17292;51.600;4.994;2024-03-23T14:25:42;3.88;;;2.40;;
30505;SDS011;17292;51.600;4.994;2024-03-23T14:28:08;3.78;;;2.42;;
30505;SDS011;17292;51.600;4.994;2024-03-23T14:30:39;3.35;;;2.70;;
30505;SDS011;17292;51.600;4.994;2024-03-23T14:33:06;2.80;;;2.58;;
30505;SDS011;17292;51.600;4.994;2024-03-23T14:35:32;3.55;;;2.67;;
30505;SDS011;17292;51.600;4.994;2024-03-23T14:37:58;4.90;;;3.10;;
30505;SDS011;17292;51.600;4.994;2024-03-23T14:40:24;4.82;;;3.15;;
30505;SDS011;17292;51.600;4.994;2024-03-23T14:42:54;3.47;;;2.70;;
30505;SDS011;17292;51.600;4.994;2024-03-23T14:45:23;4.78;;;2.90;;
30505;SDS011;17292;51.600;4.994;2024-03-23T14:47:52;3.15;;;2.42;;
30505;SDS011;17292;51.600;4.994;2024-03-23T14:50:19;3.90;;;2.45;;
30505;SDS011;17292;51.600;4.994;2024-03-23T14:52:46;3.40;;;2.92;;
30505;SDS011;17292;51.600;4.994;2024-03-23T14:55:13;2.67;;;2.40;;
30505;SDS011;17292;51.600;4.994;2024-03-23T14:57:39;2.63;;;2.42;;
30505;SDS011;17292;51.600;4.994;2024-03-23T15:00:06;3.15;;;2.63;;
30505;SDS011;17292;51.600;4.994;2024-03-23T15:02:33;4.15;;;3.13;;
30505;SDS011;17292;51.600;4.994;2024-03-23T15:05:00;3.90;;;2.75;;
30505;SDS011;17292;51.600;4.994;2024-03-23T15:07:26;2.85;;;2.60;;
30505;SDS011;17292;51.600;4.994;2024-03-23T15:09:53;4.28;;;2.83;;
30505;SDS011;17292;51.600;4.994;2024-03-23T15:12:19;3.00;;;2.65;;
30505;SDS011;17292;51.600;4.994;2024-03-23T15:14:46;4.38;;;2.80;;
30505;SDS011;17292;51.600;4.994;2024-03-23T15:17:13;4.18;;;2.88;;
30505;SDS011;17292;51.600;4.994;2024-03-23T15:19:39;3.85;;;2.50;;
30505;SDS011;17292;51.600;4.994;2024-03-23T15:22:07;2.50;;;2.30;;
30505;SDS011;17292;51.600;4.994;2024-03-23T15:24:35;3.53;;;2.63;;
30505;SDS011;17292;51.600;4.994;2024-03-23T15:27:01;2.78;;;2.38;;
30505;SDS011;17292;51.600;4.994;2024-03-23T15:29:28;3.35;;;2.97;;
30505;SDS011;17292;51.600;4.994;2024-03-23T15:31:54;3.55;;;2.60;;
30505;SDS011;17292;51.600;4.994;2024-03-23T15:34:20;4.45;;;2.47;;
30505;SDS011;17292;51.600;4.994;2024-03-23T15:36:47;2.72;;;2.50;;
30505;SDS011;17292;51.600;4.994;2024-03-23T15:39:15;4.53;;;2.72;;
30505;SDS011;17292;51.600;4.994;2024-03-23T15:41:43;4.43;;;2.20;;
30505;SDS011;17292;51.600;4.994;2024-03-23T15:44:09;2.88;;;2.65;;
30505;SDS011;17292;51.600;4.994;2024-03-23T15:46:35;2.53;;;2.20;;
30505;SDS011;17292;51.600;4.994;2024-03-23T15:49:01;2.92;;;2.60;;
30505;SDS011;17292;51.600;4.994;2024-03-23T15:51:27;2.90;;;2.28;;
30505;SDS011;17292;51.600;4.994;2024-03-23T15:53:58;2.30;;;2.10;;
30505;SDS011;17292;51.600;4.994;2024-03-23T15:56:24;2.92;;;2.65;;
30505;SDS011;17292;51.600;4.994;2024-03-23T15:58:50;4.05;;;2.70;;